createdAt,value
2022-11-10T00:02:50.783Z,73.43
2022-11-10T00:07:47.018Z,83.53
2022-11-10T00:12:43.241Z,82.05
2022-11-10T00:17:39.502Z,95.10
2022-11-10T00:22:36.448Z,98.30
2022-11-10T00:27:33.271Z,97.75
2022-11-10T00:32:29.516Z,101.10
2022-11-10T00:37:25.893Z,100.60
2022-11-10T00:42:22.134Z,111.18
2022-11-10T00:47:18.355Z,111.68
2022-11-10T00:52:14.544Z,115.47
2022-11-10T00:57:10.814Z,109.65
2022-11-10T01:02:07.112Z,105.70
2022-11-10T01:07:03.417Z,114.60
2022-11-10T01:11:59.734Z,107.22
2022-11-10T01:16:55.950Z,111.70
2022-11-10T01:21:52.367Z,115.68
2022-11-10T01:26:48.626Z,123.35
2022-11-10T01:31:44.944Z,116.22
2022-11-10T01:36:41.156Z,125.22
2022-11-10T01:41:37.351Z,120.50
2022-11-10T01:46:33.585Z,124.20
2022-11-10T01:51:32.355Z,119.60
2022-11-10T01:56:30.495Z,124.35
2022-11-10T02:01:26.904Z,121.38
2022-11-10T02:06:25.230Z,119.95
2022-11-10T02:11:21.853Z,118.65
2022-11-10T02:16:19.038Z,118.10
2022-11-10T02:21:19.083Z,118.32
2022-11-10T02:26:17.459Z,121.43
2022-11-10T02:31:13.718Z,119.43
2022-11-10T02:36:09.998Z,121.07
2022-11-10T02:41:06.254Z,121.85
2022-11-10T02:46:02.451Z,119.13
2022-11-10T02:50:58.813Z,121.90
2022-11-10T02:55:55.157Z,118.32
2022-11-10T03:00:51.452Z,123.32
2022-11-10T03:05:47.691Z,119.88
2022-11-10T03:10:43.920Z,123.32
2022-11-10T03:15:40.143Z,119.70
2022-11-10T03:20:36.492Z,121.00
2022-11-10T03:25:34.172Z,117.97
2022-11-10T03:30:30.427Z,120.55
2022-11-10T03:35:26.645Z,120.68
2022-11-10T03:40:22.910Z,116.65
2022-11-10T03:45:19.185Z,121.38
2022-11-10T03:50:16.088Z,113.28
2022-11-10T03:55:13.798Z,123.80
2022-11-10T04:00:10.612Z,121.00
2022-11-10T04:05:26.130Z,123.45
2022-11-10T04:10:22.379Z,122.65
2022-11-10T04:15:37.486Z,111.10
2022-11-10T04:20:33.705Z,118.28
2022-11-10T04:25:29.984Z,111.85
2022-11-10T04:30:26.195Z,110.97
2022-11-10T04:35:22.379Z,111.63
2022-11-10T04:40:18.733Z,109.53
2022-11-10T04:45:14.981Z,118.13
2022-11-10T04:50:11.321Z,118.00
2022-11-10T04:55:07.768Z,117.43
2022-11-10T05:00:04.816Z,118.40
2022-11-10T05:05:01.052Z,118.60
2022-11-10T05:09:57.295Z,116.30
2022-11-10T05:14:53.565Z,111.53
2022-11-10T05:19:49.818Z,118.22
2022-11-10T05:24:46.065Z,112.30
2022-11-10T05:29:42.287Z,116.03
2022-11-10T05:34:39.583Z,110.05
2022-11-10T05:39:35.941Z,113.80
2022-11-10T05:44:32.167Z,117.60
2022-11-10T05:49:28.466Z,111.30
2022-11-10T05:54:24.741Z,115.45
2022-11-10T05:59:20.983Z,117.03
2022-11-10T06:04:17.512Z,112.45
2022-11-10T06:09:13.819Z,113.75
2022-11-10T06:14:10.026Z,113.63
2022-11-10T06:19:07.353Z,119.68
2022-11-10T06:24:03.710Z,116.93
2022-11-10T06:29:00.062Z,113.68
2022-11-10T06:33:56.397Z,118.30
2022-11-10T06:38:52.910Z,113.70
2022-11-10T06:43:49.394Z,119.55
2022-11-10T06:48:45.621Z,109.90
2022-11-10T06:53:42.179Z,109.70
2022-11-10T06:58:38.462Z,107.00
2022-11-10T07:03:38.838Z,105.60
2022-11-10T07:08:40.808Z,111.32
2022-11-10T07:13:37.191Z,112.05
2022-11-10T07:18:33.820Z,113.18
2022-11-10T07:23:30.395Z,106.38
2022-11-10T07:28:28.455Z,106.15
2022-11-10T07:33:25.147Z,113.72
2022-11-10T07:38:21.708Z,113.35
2022-11-10T07:43:18.218Z,107.72
2022-11-10T07:48:14.624Z,97.32
2022-11-10T07:53:12.240Z,103.75
2022-11-10T07:58:09.255Z,105.72
2022-11-10T08:03:06.951Z,105.25
2022-11-10T08:08:03.888Z,104.10
2022-11-10T08:13:01.155Z,99.28
2022-11-10T08:18:00.830Z,98.75
2022-11-10T08:23:01.047Z,100.75
2022-11-10T08:27:58.625Z,98.45
2022-11-10T08:32:56.047Z,97.35
2022-11-10T08:37:52.475Z,89.20
2022-11-10T08:42:48.824Z,89.15
2022-11-10T08:47:45.143Z,90.45
2022-11-10T08:52:41.379Z,77.60
2022-11-10T08:57:37.605Z,79.47
2022-11-10T09:02:33.872Z,80.95
2022-11-10T09:07:31.180Z,79.68
2022-11-10T09:12:27.701Z,80.97
2022-11-10T09:17:25.276Z,86.20
2022-11-10T09:22:21.568Z,89.88
2022-11-10T09:27:18.032Z,87.47
2022-11-10T09:32:14.311Z,83.15
2022-11-10T09:37:10.647Z,71.47
2022-11-10T09:42:22.750Z,68.15
2022-11-10T09:47:56.684Z,67.80
2022-11-10T09:52:54.275Z,66.82
2022-11-10T09:57:53.169Z,67.32
2022-11-10T10:02:53.707Z,65.45
2022-11-10T10:07:49.937Z,54.38
2022-11-10T10:12:46.277Z,57.30
2022-11-10T10:17:42.507Z,52.30
2022-11-10T10:22:55.723Z,52.85
2022-11-10T10:32:49.142Z,49.80
2022-11-10T10:37:45.758Z,47.92
2022-11-10T10:42:41.987Z,47.47
2022-11-10T10:47:38.960Z,42.58
2022-11-10T10:52:35.344Z,48.03
2022-11-10T10:57:32.033Z,39.97
2022-11-10T11:02:29.681Z,39.95
2022-11-10T11:07:26.016Z,47.03
2022-11-10T11:12:22.355Z,38.47
2022-11-10T11:17:21.111Z,37.28
2022-11-10T11:22:37.469Z,36.92
2022-11-10T11:27:46.268Z,35.38
2022-11-10T11:33:00.357Z,37.88
2022-11-10T11:38:14.839Z,36.80
2022-11-10T11:43:19.077Z,36.83
2022-11-10T11:48:34.539Z,35.45
2022-11-10T11:53:50.428Z,35.08
2022-11-10T11:59:03.539Z,34.58
2022-11-10T12:08:58.870Z,31.98
2022-11-10T12:14:03.773Z,31.83
2022-11-10T12:19:18.909Z,27.33
2022-11-10T12:24:21.032Z,29.55
2022-11-10T12:29:36.433Z,27.40
2022-11-10T12:34:50.158Z,24.95
2022-11-10T12:39:49.930Z,30.98
2022-11-10T12:44:57.308Z,27.45
2022-11-10T12:50:01.739Z,29.85
2022-11-10T12:54:58.544Z,27.90
2022-11-10T12:59:56.714Z,26.73
2022-11-10T13:05:17.706Z,27.55
2022-11-10T13:10:24.673Z,25.67
2022-11-10T13:15:39.351Z,28.88
2022-11-10T13:20:41.636Z,26.88
2022-11-10T13:25:37.920Z,26.25
2022-11-10T13:30:43.668Z,26.70
2022-11-10T13:35:39.865Z,28.50
2022-11-10T13:40:36.538Z,29.30
2022-11-10T13:45:35.271Z,28.45
2022-11-10T13:50:41.012Z,31.45
2022-11-10T13:55:56.161Z,27.40
2022-11-10T14:01:12.444Z,26.58
2022-11-10T14:06:11.954Z,27.65
2022-11-10T14:11:18.512Z,28.02
2022-11-10T14:16:19.387Z,28.67
2022-11-10T14:21:25.485Z,27.98
2022-11-10T14:26:40.478Z,30.08
2022-11-10T14:31:37.174Z,27.67
2022-11-10T14:36:33.942Z,29.40
2022-11-10T14:41:30.281Z,26.98
2022-11-10T14:46:26.654Z,25.80
2022-11-10T14:51:22.974Z,23.67
2022-11-10T14:56:22.134Z,25.65
2022-11-10T15:01:27.318Z,22.30
2022-11-10T15:06:23.960Z,23.05
2022-11-10T15:11:33.185Z,25.73
2022-11-10T15:16:33.086Z,25.20
2022-11-10T15:21:33.717Z,22.13
2022-11-10T15:26:33.526Z,23.70
2022-11-10T15:31:31.238Z,32.70
2022-11-10T15:36:32.019Z,23.35
2022-11-10T15:41:30.794Z,23.08
2022-11-10T15:46:27.224Z,23.40
2022-11-10T15:51:26.372Z,20.42
2022-11-10T15:56:24.704Z,22.95
2022-11-10T16:01:21.114Z,22.48
2022-11-10T16:06:17.446Z,23.42
2022-11-10T16:11:18.720Z,25.98
2022-11-10T16:16:17.323Z,21.85
2022-11-10T16:21:23.708Z,22.15
2022-11-10T16:26:22.644Z,20.48
2022-11-10T16:31:20.122Z,20.38
2022-11-10T16:36:24.777Z,20.00
2022-11-10T16:41:21.582Z,20.20
2022-11-10T16:46:28.916Z,18.20
2022-11-10T16:51:37.046Z,19.08
2022-11-10T16:56:33.454Z,19.73
2022-11-10T17:01:30.949Z,18.80
2022-11-10T17:06:31.331Z,23.40
2022-11-10T17:11:27.742Z,19.98
2022-11-10T17:16:23.974Z,20.10
2022-11-10T17:21:21.369Z,19.40
2022-11-10T17:26:19.141Z,19.52
2022-11-10T17:31:16.783Z,17.98
2022-11-10T17:36:23.031Z,21.85
2022-11-10T17:41:20.223Z,21.45
2022-11-10T17:46:16.636Z,21.15
2022-11-10T17:51:19.602Z,19.08
2022-11-10T17:56:16.276Z,20.73
2022-11-10T18:01:19.289Z,20.75
2022-11-10T18:06:16.631Z,19.38
2022-11-10T18:11:14.231Z,19.92
2022-11-10T18:16:11.187Z,21.15
2022-11-10T18:21:07.773Z,19.73
2022-11-10T18:26:08.084Z,20.55
2022-11-10T18:31:08.023Z,19.63
2022-11-10T18:36:04.423Z,19.80
2022-11-10T18:41:24.413Z,21.25
2022-11-10T18:46:20.744Z,19.63
2022-11-10T18:51:17.033Z,21.88
2022-11-10T18:56:14.257Z,20.00
2022-11-10T19:01:10.789Z,19.73
2022-11-10T19:06:07.155Z,18.50
2022-11-10T19:11:07.438Z,19.17
2022-11-10T19:16:14.175Z,26.23
2022-11-10T19:21:11.822Z,20.33
2022-11-10T19:26:10.243Z,18.42
2022-11-10T19:31:09.747Z,19.23
2022-11-10T19:36:07.672Z,18.38
2022-11-10T19:41:08.458Z,20.05
2022-11-10T19:46:06.127Z,17.23
2022-11-10T19:51:03.157Z,18.08
2022-11-10T19:56:00.418Z,17.08
2022-11-10T20:00:56.983Z,17.83
2022-11-10T20:06:00.663Z,17.23
2022-11-10T20:11:07.649Z,17.60
2022-11-10T20:16:04.566Z,16.42
2022-11-10T20:21:08.200Z,15.88
2022-11-10T20:26:14.390Z,17.27
2022-11-10T20:31:12.968Z,19.95
2022-11-10T20:36:19.934Z,16.65
2022-11-10T20:41:18.565Z,21.08
2022-11-10T20:46:33.368Z,15.85
2022-11-10T20:51:29.923Z,16.75
2022-11-10T20:56:29.638Z,17.70
2022-11-10T21:01:26.587Z,15.10
2022-11-10T21:06:22.886Z,15.30
2022-11-10T21:11:37.932Z,19.15
2022-11-10T21:16:34.214Z,15.43
2022-11-10T21:21:36.120Z,16.40
2022-11-10T21:26:34.088Z,15.00
2022-11-10T21:31:30.770Z,16.17
2022-11-10T21:36:29.268Z,23.65
2022-11-10T21:41:26.186Z,15.98
2022-11-10T21:46:22.389Z,17.45
2022-11-10T21:51:20.947Z,16.00
2022-11-10T21:56:17.506Z,20.75
2022-11-10T22:01:15.904Z,15.52
2022-11-10T22:06:13.391Z,18.80
2022-11-10T22:11:32.617Z,16.88
2022-11-10T22:16:51.517Z,18.10
2022-11-10T22:21:48.760Z,16.30
2022-11-10T22:26:44.972Z,16.02
2022-11-10T22:31:41.415Z,16.63
2022-11-10T22:36:37.613Z,19.20
2022-11-10T22:41:52.520Z,16.80
2022-11-10T22:46:50.919Z,17.92
2022-11-10T22:51:48.307Z,16.65
2022-11-10T22:56:44.721Z,17.48
2022-11-10T23:01:41.932Z,17.08
2022-11-10T23:06:38.510Z,15.63
2022-11-10T23:11:34.969Z,17.20
2022-11-10T23:16:32.763Z,17.05
2022-11-10T23:21:29.601Z,18.48
2022-11-10T23:26:27.403Z,15.98
2022-11-10T23:31:24.657Z,18.75
2022-11-10T23:36:21.757Z,17.35
2022-11-10T23:41:18.900Z,19.70
2022-11-10T23:46:15.130Z,19.35
2022-11-10T23:51:12.772Z,20.17
2022-11-10T23:56:10.824Z,18.58
